Time;durP1;ratioP1;P1;durP2;ratioP2;P2;SDS_P1;SDS_P2;PMS_P1;PMS_P2;Temp;Humidity;BMP_temperature;BMP_pressure;BME280_temperature;BME280_humidity;BME280_pressure;Samples;Min_cycle;Max_cycle;Signal;HPM_P1;HPM_P2
2024/01/21 00:02:21;;;;;;;10.07;6.38;;;0.60;1.00;;;;;;5101999;28;20471;-79
2024/01/21 00:04:48;;;;;;;11.67;6.40;;;0.60;1.00;;;;;;5104723;28;20400;-77
2024/01/21 00:07:13;;;;;;;10.60;6.43;;;0.60;1.00;;;;;;5099272;28;20882;-77
2024/01/21 00:09:39;;;;;;;8.55;5.78;;;0.50;1.00;;;;;;5094496;28;20398;-77
2024/01/21 00:12:05;;;;;;;10.10;6.50;;;0.50;1.00;;;;;;5089286;28;20416;-78
2024/01/21 00:14:30;;;;;;;10.83;7.07;;;0.50;1.00;;;;;;5078607;28;20395;-79
2024/01/21 00:16:56;;;;;;;10.40;6.70;;;0.50;1.00;;;;;;5090675;28;20788;-78
2024/01/21 00:19:21;;;;;;;9.80;6.78;;;0.50;1.00;;;;;;5099996;28;20416;-78
2024/01/21 00:21:47;;;;;;;10.93;6.77;;;0.50;1.00;;;;;;5097037;28;20539;-79
2024/01/21 00:24:13;;;;;;;11.33;7.20;;;0.50;1.00;;;;;;5098382;28;20402;-78
2024/01/21 00:26:38;;;;;;;10.55;7.70;;;0.50;1.00;;;;;;5088658;28;20424;-78
2024/01/21 00:29:04;;;;;;;11.80;7.82;;;0.50;1.00;;;;;;5090108;28;20423;-78
2024/01/21 00:31:30;;;;;;;11.83;8.13;;;0.50;1.00;;;;;;5094322;28;20405;-79
2024/01/21 00:33:55;;;;;;;10.77;8.20;;;0.50;1.00;;;;;;5093092;28;20446;-80
2024/01/21 00:36:21;;;;;;;11.57;7.60;;;0.50;1.00;;;;;;5091820;28;20901;-79
2024/01/21 00:38:47;;;;;;;12.33;8.10;;;0.50;1.00;;;;;;5088141;28;20422;-79
2024/01/21 00:41:16;;;;;;;11.20;7.85;;;0.40;1.00;;;;;;5084916;28;21011;-78
2024/01/21 00:43:42;;;;;;;12.00;7.70;;;0.40;1.00;;;;;;5081848;28;20834;-79
2024/01/21 00:46:08;;;;;;;11.77;7.70;;;0.50;1.00;;;;;;5086212;28;20449;-77
2024/01/21 00:48:34;;;;;;;11.05;7.93;;;0.40;1.00;;;;;;5098196;28;20389;-77
2024/01/21 00:51:00;;;;;;;10.55;7.28;;;0.50;1.00;;;;;;5090266;28;20422;-78
2024/01/21 00:53:26;;;;;;;12.52;7.97;;;0.50;1.00;;;;;;5095787;28;20414;-78
2024/01/21 00:55:52;;;;;;;11.55;8.00;;;0.40;1.00;;;;;;5089413;28;20467;-78
2024/01/21 00:58:18;;;;;;;10.88;7.25;;;0.50;1.00;;;;;;5096246;28;20424;-78
2024/01/21 01:00:43;;;;;;;10.53;7.00;;;0.40;1.00;;;;;;5096163;28;20526;-77
2024/01/21 01:03:09;;;;;;;12.17;7.23;;;0.40;1.00;;;;;;5094078;28;20923;-78
2024/01/21 01:05:35;;;;;;;9.55;6.95;;;0.40;1.00;;;;;;5094461;28;20470;-77
2024/01/21 01:08:01;;;;;;;9.30;6.20;;;0.40;1.00;;;;;;5089229;28;20492;-77
2024/01/21 01:10:26;;;;;;;12.80;7.05;;;0.50;1.00;;;;;;5097379;28;20433;-77
2024/01/21 01:12:52;;;;;;;11.23;7.40;;;0.50;1.00;;;;;;5094157;28;20418;-77
2024/01/21 01:15:18;;;;;;;10.37;7.17;;;0.50;1.00;;;;;;5093046;28;20417;-77
2024/01/21 01:17:44;;;;;;;10.57;6.85;;;0.50;1.00;;;;;;5096152;28;20437;-78
2024/01/21 01:20:10;;;;;;;10.17;6.77;;;0.50;1.00;;;;;;5097473;28;20982;-78
2024/01/21 01:22:36;;;;;;;10.60;6.80;;;0.60;1.00;;;;;;5086187;28;20512;-78
2024/01/21 01:25:02;;;;;;;10.27;6.37;;;0.60;1.00;;;;;;5097168;28;20417;-77
2024/01/21 01:27:27;;;;;;;9.43;6.53;;;0.60;1.00;;;;;;5096783;28;20424;-77
2024/01/21 01:29:53;;;;;;;10.30;6.45;;;0.60;1.00;;;;;;5097191;28;20398;-78
2024/01/21 01:32:18;;;;;;;9.07;6.10;;;0.70;1.00;;;;;;5093090;28;20505;-77
2024/01/21 01:34:44;;;;;;;10.77;6.40;;;0.70;1.00;;;;;;5095199;28;20410;-77
2024/01/21 01:37:11;;;;;;;10.55;6.25;;;0.70;1.00;;;;;;5086068;28;20418;-77
2024/01/21 01:39:37;;;;;;;10.55;6.85;;;0.80;1.00;;;;;;5085804;28;20450;-77
2024/01/21 01:42:03;;;;;;;11.10;6.50;;;0.70;1.00;;;;;;5097166;28;20410;-77
2024/01/21 01:44:28;;;;;;;10.00;6.73;;;0.80;1.00;;;;;;5102688;28;20403;-77
2024/01/21 01:46:54;;;;;;;10.70;6.60;;;0.80;1.00;;;;;;5093616;28;21141;-77
2024/01/21 01:49:20;;;;;;;10.43;6.80;;;0.70;1.00;;;;;;5102206;28;20402;-77
2024/01/21 01:51:46;;;;;;;10.50;6.37;;;0.70;1.00;;;;;;5094819;28;20445;-77
2024/01/21 01:54:13;;;;;;;10.10;6.80;;;0.70;1.00;;;;;;5094010;28;20402;-78
2024/01/21 01:56:39;;;;;;;12.10;7.07;;;0.70;1.00;;;;;;5098607;28;20755;-77
2024/01/21 01:59:09;;;;;;;11.73;6.60;;;0.70;1.00;;;;;;5103086;28;20461;-77
2024/01/21 02:01:37;;;;;;;10.73;6.60;;;0.70;1.00;;;;;;5104983;28;20431;-78
2024/01/21 02:04:04;;;;;;;10.65;6.15;;;0.70;1.00;;;;;;5076257;28;20411;-78
2024/01/21 02:06:30;;;;;;;9.47;6.17;;;0.70;1.00;;;;;;5102221;28;20469;-78
2024/01/21 02:08:57;;;;;;;9.67;6.07;;;0.70;1.00;;;;;;5102337;28;20412;-78
2024/01/21 02:11:23;;;;;;;13.00;6.77;;;0.80;1.00;;;;;;5101177;28;20413;-78
2024/01/21 02:13:49;;;;;;;9.13;6.00;;;0.70;1.00;;;;;;5092627;28;20929;-78
2024/01/21 02:16:15;;;;;;;10.80;5.97;;;0.70;1.00;;;;;;5106230;28;20432;-78
2024/01/21 02:18:45;;;;;;;10.97;6.13;;;0.70;1.00;;;;;;5096994;28;20820;-78
2024/01/21 02:21:11;;;;;;;9.77;5.85;;;0.70;1.00;;;;;;5088183;28;20802;-78
2024/01/21 02:23:36;;;;;;;10.07;5.85;;;0.70;1.00;;;;;;5085065;28;21346;-78
2024/01/21 02:26:02;;;;;;;9.43;5.40;;;0.70;1.00;;;;;;5094120;28;20500;-78
2024/01/21 02:28:28;;;;;;;9.07;5.07;;;0.70;1.00;;;;;;5101843;28;20416;-78
2024/01/21 02:30:53;;;;;;;9.40;5.53;;;0.70;1.00;;;;;;5097038;28;20809;-78
2024/01/21 02:33:19;;;;;;;8.97;5.23;;;0.70;1.00;;;;;;5101278;28;21153;-78
2024/01/21 02:35:45;;;;;;;7.90;4.72;;;0.70;1.00;;;;;;5096190;28;20892;-78
2024/01/21 02:38:10;;;;;;;7.47;4.80;;;0.70;1.00;;;;;;5097014;28;20433;-78
2024/01/21 02:40:37;;;;;;;7.60;4.80;;;0.70;1.00;;;;;;5098174;28;20471;-78
2024/01/21 02:43:07;;;;;;;8.70;5.10;;;0.70;1.00;;;;;;5099120;28;20461;-78
2024/01/21 02:45:33;;;;;;;8.35;4.97;;;0.60;1.00;;;;;;5091582;28;20426;-77
2024/01/21 02:47:59;;;;;;;9.05;5.38;;;0.60;1.00;;;;;;5099183;28;20961;-78
2024/01/21 02:50:24;;;;;;;9.07;5.30;;;0.60;1.00;;;;;;5102928;28;20508;-78
2024/01/21 02:52:50;;;;;;;8.33;4.90;;;0.60;1.00;;;;;;5107975;28;20396;-78
2024/01/21 02:55:15;;;;;;;7.43;4.80;;;0.60;1.00;;;;;;5096265;28;20422;-78
2024/01/21 02:57:41;;;;;;;7.18;4.65;;;0.60;1.00;;;;;;5092343;28;20461;-78
2024/01/21 03:00:07;;;;;;;7.50;5.10;;;0.60;1.00;;;;;;5102937;28;20412;-78
2024/01/21 03:02:33;;;;;;;8.40;4.68;;;0.60;1.00;;;;;;5107576;28;20410;-78
2024/01/21 03:04:59;;;;;;;7.90;4.60;;;0.60;1.00;;;;;;5104474;28;20427;-78
2024/01/21 03:07:25;;;;;;;8.00;4.88;;;0.50;1.00;;;;;;5092277;28;20426;-78
2024/01/21 03:09:50;;;;;;;7.53;4.60;;;0.50;1.00;;;;;;5099133;28;20410;-78
2024/01/21 03:12:16;;;;;;;7.67;4.80;;;0.50;1.00;;;;;;5089972;28;20414;-78
2024/01/21 03:14:41;;;;;;;7.40;4.65;;;0.50;1.00;;;;;;5098301;28;20497;-78
2024/01/21 03:17:08;;;;;;;7.03;4.33;;;0.60;1.00;;;;;;5100179;28;20438;-78
2024/01/21 03:19:33;;;;;;;7.67;4.37;;;0.60;1.00;;;;;;5089601;28;20512;-78
2024/01/21 03:22:00;;;;;;;6.55;3.85;;;0.60;1.00;;;;;;5099950;28;20438;-78
2024/01/21 03:24:26;;;;;;;6.78;3.75;;;0.60;1.00;;;;;;5102719;28;20418;-78
2024/01/21 03:26:52;;;;;;;6.20;3.63;;;0.70;1.00;;;;;;5089869;28;20470;-78
2024/01/21 03:29:17;;;;;;;5.78;3.65;;;0.70;1.00;;;;;;5099107;28;20401;-77
2024/01/21 03:31:43;;;;;;;7.07;4.00;;;0.70;1.00;;;;;;5102514;28;20410;-77
2024/01/21 03:34:08;;;;;;;5.67;3.47;;;0.70;1.00;;;;;;5089569;28;20401;-77
2024/01/21 03:36:34;;;;;;;6.40;3.15;;;0.80;1.00;;;;;;5086247;28;20780;-77
2024/01/21 03:39:00;;;;;;;6.63;3.20;;;0.80;1.00;;;;;;5100789;28;20513;-77
2024/01/21 03:41:25;;;;;;;6.10;2.97;;;0.80;1.00;;;;;;5087683;28;20429;-77
2024/01/21 03:43:51;;;;;;;6.00;2.80;;;0.90;1.00;;;;;;5097596;28;20397;-77
2024/01/21 03:46:18;;;;;;;4.93;3.17;;;0.90;1.00;;;;;;5092471;28;20426;-77
2024/01/21 03:48:43;;;;;;;5.43;3.28;;;1.00;1.00;;;;;;5086021;28;20422;-77
2024/01/21 03:51:10;;;;;;;4.90;2.58;;;0.90;1.00;;;;;;5091825;28;20926;-78
2024/01/21 03:53:39;;;;;;;4.70;2.70;;;0.90;1.00;;;;;;5087518;28;20428;-77
2024/01/21 03:56:05;;;;;;;4.63;2.70;;;0.90;1.00;;;;;;5095796;28;20433;-77
2024/01/21 03:58:31;;;;;;;6.68;2.70;;;0.90;1.00;;;;;;5108275;28;20423;-77
2024/01/21 04:00:57;;;;;;;4.43;2.33;;;0.90;1.00;;;;;;5100527;28;20509;-77
2024/01/21 04:03:22;;;;;;;4.57;2.70;;;0.90;1.00;;;;;;5106558;28;20905;-77
2024/01/21 04:05:48;;;;;;;4.47;2.20;;;0.90;1.00;;;;;;5089927;28;20945;-77
2024/01/21 04:08:14;;;;;;;4.07;2.30;;;0.90;1.00;;;;;;5095444;28;20408;-77
2024/01/21 04:10:40;;;;;;;3.83;2.33;;;0.80;1.00;;;;;;5091411;28;20410;-77
2024/01/21 04:13:05;;;;;;;3.55;2.30;;;0.80;1.00;;;;;;5097261;28;20415;-77
2024/01/21 04:15:31;;;;;;;3.60;2.07;;;0.80;1.00;;;;;;5093666;28;20421;-76
2024/01/21 04:17:57;;;;;;;4.57;2.33;;;0.80;1.00;;;;;;5096741;28;20420;-79
2024/01/21 04:20:23;;;;;;;4.20;2.27;;;0.80;1.00;;;;;;5100898;28;20414;-79
2024/01/21 04:22:48;;;;;;;4.60;2.40;;;0.80;1.00;;;;;;5099117;28;20435;-79
2024/01/21 04:25:14;;;;;;;3.92;2.20;;;0.80;1.00;;;;;;5095104;28;20954;-79
2024/01/21 04:27:40;;;;;;;4.07;2.10;;;0.70;1.00;;;;;;5095482;28;20416;-79
2024/01/21 04:30:06;;;;;;;4.30;2.08;;;0.70;1.00;;;;;;5093632;28;20579;-79
2024/01/21 04:32:31;;;;;;;4.07;2.22;;;0.70;1.00;;;;;;5102251;28;20427;-78
2024/01/21 04:34:57;;;;;;;3.95;2.10;;;0.70;1.00;;;;;;5091661;28;20406;-78
2024/01/21 04:37:23;;;;;;;5.10;2.45;;;0.70;1.00;;;;;;5086618;28;20425;-79
2024/01/21 04:39:48;;;;;;;4.83;2.07;;;0.60;1.00;;;;;;5099153;28;20413;-76
2024/01/21 04:42:14;;;;;;;4.20;2.20;;;0.60;1.00;;;;;;5086689;28;20430;-76
2024/01/21 04:44:40;;;;;;;3.85;2.30;;;0.60;1.00;;;;;;5100717;28;20408;-78
2024/01/21 04:47:05;;;;;;;2.83;1.73;;;0.50;1.00;;;;;;5085794;28;20436;-79
2024/01/21 04:49:31;;;;;;;3.63;1.90;;;0.50;1.00;;;;;;5102565;28;20966;-79
2024/01/21 04:51:57;;;;;;;3.97;1.80;;;0.50;1.00;;;;;;5080166;28;20409;-79
2024/01/21 04:54:22;;;;;;;3.63;1.83;;;0.50;1.00;;;;;;5100885;28;21386;-79
2024/01/21 04:56:48;;;;;;;3.50;1.53;;;0.50;1.00;;;;;;5098006;28;20420;-79
2024/01/21 04:59:13;;;;;;;4.68;1.63;;;0.50;1.00;;;;;;5099166;28;20787;-78
2024/01/21 05:01:40;;;;;;;3.73;1.60;;;0.50;1.00;;;;;;5097448;28;20420;-79
2024/01/21 05:04:06;;;;;;;3.50;1.70;;;0.50;1.00;;;;;;5081384;28;20424;-79
2024/01/21 05:06:31;;;;;;;3.50;1.48;;;0.60;1.00;;;;;;5102677;28;20477;-77
2024/01/21 05:08:57;;;;;;;4.07;1.87;;;0.60;1.00;;;;;;5092203;28;20787;-76
2024/01/21 05:11:22;;;;;;;3.13;1.40;;;0.70;1.00;;;;;;5104894;28;20404;-77
2024/01/21 05:13:48;;;;;;;3.42;1.38;;;0.70;1.00;;;;;;5101066;28;21000;-77
2024/01/21 05:16:14;;;;;;;2.60;1.17;;;0.80;1.00;;;;;;5086190;28;21995;-76
2024/01/21 05:18:40;;;;;;;2.92;1.50;;;0.80;1.00;;;;;;5086914;28;20551;-77
2024/01/21 05:21:06;;;;;;;2.67;1.13;;;0.80;1.00;;;;;;5088320;28;20907;-76
2024/01/21 05:23:35;;;;;;;2.77;1.37;;;0.80;1.00;;;;;;5086814;28;20426;-77
2024/01/21 05:26:00;;;;;;;4.07;1.40;;;0.80;1.00;;;;;;5081074;28;20412;-77
2024/01/21 05:28:26;;;;;;;2.92;1.30;;;0.90;1.00;;;;;;5093397;28;20841;-77
2024/01/21 05:30:51;;;;;;;3.63;1.40;;;0.90;1.00;;;;;;5095540;28;20423;-77
2024/01/21 05:33:17;;;;;;;2.70;1.13;;;0.90;1.00;;;;;;5094540;28;20426;-77
2024/01/21 05:35:43;;;;;;;2.47;1.25;;;0.90;1.00;;;;;;5107499;28;20407;-76
2024/01/21 05:38:08;;;;;;;2.60;1.27;;;1.00;1.00;;;;;;5091235;28;20951;-77
2024/01/21 05:40:35;;;;;;;3.60;1.30;;;1.00;1.00;;;;;;5098381;28;20479;-77
2024/01/21 05:43:01;;;;;;;3.67;1.30;;;1.10;1.00;;;;;;5091732;28;20441;-77
2024/01/21 05:45:27;;;;;;;1.88;1.00;;;1.10;1.00;;;;;;5095308;28;20396;-77
2024/01/21 05:47:53;;;;;;;2.70;1.13;;;1.10;1.00;;;;;;5091091;28;20807;-77
2024/01/21 05:50:18;;;;;;;2.47;1.08;;;1.10;1.00;;;;;;5089602;28;20433;-77
2024/01/21 05:52:44;;;;;;;4.33;1.20;;;1.20;1.00;;;;;;5096899;28;20432;-78
2024/01/21 05:55:10;;;;;;;2.80;1.20;;;1.20;99.90;;;;;;5097154;28;20415;-77
2024/01/21 05:57:35;;;;;;;2.45;1.20;;;1.20;99.90;;;;;;5103469;28;20430;-77
2024/01/21 06:00:01;;;;;;;2.50;1.00;;;1.30;99.90;;;;;;5092320;28;20431;-77
2024/01/21 06:02:26;;;;;;;4.20;1.20;;;1.40;99.90;;;;;;5095291;28;20808;-77
2024/01/21 06:04:52;;;;;;;2.35;1.00;;;1.40;99.90;;;;;;5093936;28;20468;-77
2024/01/21 06:07:18;;;;;;;4.85;1.23;;;1.40;99.90;;;;;;5090163;28;20410;-78
2024/01/21 06:09:46;;;;;;;3.10;1.25;;;1.40;99.90;;;;;;5093621;28;20532;-78
2024/01/21 06:12:11;;;;;;;3.25;1.35;;;1.50;99.90;;;;;;5098123;28;20822;-78
2024/01/21 06:14:37;;;;;;;2.73;1.30;;;1.50;99.90;;;;;;5104123;28;20416;-77
2024/01/21 06:17:03;;;;;;;2.30;1.10;;;1.50;99.90;;;;;;5097974;28;20434;-77
2024/01/21 06:19:29;;;;;;;1.85;1.08;;;1.50;99.90;;;;;;5096266;28;21130;-77
2024/01/21 06:21:54;;;;;;;2.67;1.00;;;1.50;99.90;;;;;;5096248;28;20791;-77
2024/01/21 06:24:20;;;;;;;2.97;1.23;;;1.50;99.90;;;;;;5089425;28;20932;-77
2024/01/21 06:26:46;;;;;;;2.95;1.40;;;1.70;99.90;;;;;;5098879;28;20440;-77
2024/01/21 06:29:12;;;;;;;2.97;1.40;;;1.70;99.90;;;;;;5094983;28;20529;-77
2024/01/21 06:31:38;;;;;;;2.80;1.27;;;1.80;99.90;;;;;;5099721;28;20415;-77
2024/01/21 06:34:03;;;;;;;4.03;1.42;;;1.90;99.90;;;;;;5100978;28;20914;-78
2024/01/21 06:36:29;;;;;;;3.47;1.50;;;2.00;99.90;;;;;;5103015;28;20430;-78
2024/01/21 06:38:54;;;;;;;3.25;1.88;;;2.00;99.90;;;;;;5108113;28;21274;-78
2024/01/21 06:41:20;;;;;;;3.00;1.48;;;2.00;99.90;;;;;;5093005;28;20497;-78
2024/01/21 06:43:46;;;;;;;3.93;1.63;;;2.00;99.90;;;;;;5104058;28;20937;-78
2024/01/21 06:46:12;;;;;;;3.10;1.70;;;2.00;99.90;;;;;;5094292;28;20494;-77
2024/01/21 06:48:37;;;;;;;3.88;1.85;;;2.00;99.90;;;;;;5090105;28;20475;-77
2024/01/21 06:51:10;;;;;;;4.13;1.85;;;2.00;99.90;;;;;;5082615;28;20423;-77
2024/01/21 06:53:37;;;;;;;3.42;1.88;;;2.10;99.90;;;;;;5105524;28;20448;-77
2024/01/21 06:56:07;;;;;;;5.03;2.33;;;2.00;99.90;;;;;;5100374;28;20806;-77
2024/01/21 06:58:36;;;;;;;5.85;2.40;;;2.00;99.90;;;;;;5109349;28;20503;-77
2024/01/21 07:01:02;;;;;;;4.05;2.42;;;2.00;99.90;;;;;;5098610;28;20434;-78
2024/01/21 07:03:28;;;;;;;3.95;2.40;;;1.90;99.90;;;;;;5098432;28;20782;-78
2024/01/21 07:05:54;;;;;;;4.72;2.25;;;1.90;99.90;;;;;;5096408;28;21213;-78
2024/01/21 07:08:20;;;;;;;4.88;2.50;;;1.90;99.90;;;;;;5108158;28;20403;-78
2024/01/21 07:10:45;;;;;;;4.27;2.20;;;1.90;99.90;;;;;;5103664;28;20437;-77
2024/01/21 07:13:11;;;;;;;4.07;2.43;;;1.90;99.90;;;;;;5099115;28;20753;-77
2024/01/21 07:15:38;;;;;;;5.50;2.70;;;1.90;99.90;;;;;;5098624;28;20938;-77
2024/01/21 07:18:06;;;;;;;4.75;2.72;;;1.90;99.90;;;;;;5081458;28;20919;-78
2024/01/21 07:20:32;;;;;;;4.60;2.85;;;1.90;99.90;;;;;;5101525;28;20406;-78
2024/01/21 07:22:58;;;;;;;5.23;2.90;;;1.90;99.90;;;;;;5091160;28;20421;-78
2024/01/21 07:25:24;;;;;;;4.93;2.70;;;1.90;99.90;;;;;;5090589;28;20421;-78
2024/01/21 07:27:50;;;;;;;5.63;2.97;;;1.90;99.90;;;;;;5099141;28;20420;-78
2024/01/21 07:30:17;;;;;;;5.57;2.95;;;1.80;99.90;;;;;;5090689;28;20934;-78
2024/01/21 07:32:42;;;;;;;5.40;3.08;;;1.80;99.90;;;;;;5086867;28;20422;-78
2024/01/21 07:35:11;;;;;;;4.32;2.70;;;1.80;99.90;;;;;;5089889;28;20771;-79
2024/01/21 07:37:37;;;;;;;6.40;3.30;;;1.80;99.90;;;;;;5070417;28;20428;-77
2024/01/21 07:40:06;;;;;;;6.40;3.47;;;1.80;99.90;;;;;;5077699;28;20533;-78
2024/01/21 07:42:32;;;;;;;6.53;3.17;;;1.80;99.90;;;;;;5086053;28;20808;-78
2024/01/21 07:44:58;;;;;;;5.63;3.38;;;1.90;99.90;;;;;;5076819;28;20404;-77
2024/01/21 07:47:24;;;;;;;5.05;3.13;;;1.90;99.90;;;;;;5090037;28;20522;-78
2024/01/21 07:49:50;;;;;;;7.15;3.65;;;1.90;99.90;;;;;;5089413;28;20396;-78
2024/01/21 07:52:16;;;;;;;5.32;3.47;;;1.90;99.90;;;;;;5073132;28;20408;-78
2024/01/21 07:54:43;;;;;;;6.15;3.60;;;1.90;99.90;;;;;;5080449;28;20427;-78
2024/01/21 07:57:08;;;;;;;7.68;4.00;;;1.90;99.90;;;;;;5079714;28;20400;-76
2024/01/21 07:59:34;;;;;;;5.83;3.87;;;1.90;99.90;;;;;;5079921;28;20487;-78
2024/01/21 08:02:00;;;;;;;6.68;3.75;;;1.90;99.90;;;;;;5097183;28;20406;-77
2024/01/21 08:04:25;;;;;;;7.85;4.00;;;1.90;99.90;;;;;;5089172;28;20807;-77
2024/01/21 08:06:51;;;;;;;6.87;3.97;;;1.90;99.90;;;;;;5101986;28;20420;-77
2024/01/21 08:09:18;;;;;;;7.13;4.43;;;1.90;99.90;;;;;;5090949;28;20418;-77
2024/01/21 08:11:43;;;;;;;5.55;3.40;;;1.90;99.90;;;;;;5099425;28;20426;-78
2024/01/21 08:14:09;;;;;;;6.30;3.50;;;1.90;99.90;;;;;;5087804;28;20478;-77
2024/01/21 08:16:35;;;;;;;6.00;4.10;;;1.90;99.90;;;;;;5096721;28;20415;-77
2024/01/21 08:19:00;;;;;;;7.20;4.25;;;2.00;99.90;;;;;;5098692;28;20446;-77
2024/01/21 08:21:26;;;;;;;7.83;4.50;;;2.00;99.90;;;;;;5078787;28;20421;-78
2024/01/21 08:23:51;;;;;;;7.18;4.40;;;2.00;99.90;;;;;;5100840;28;20445;-77
2024/01/21 08:26:17;;;;;;;7.23;4.67;;;2.00;99.90;;;;;;5106974;28;20396;-77
2024/01/21 08:28:43;;;;;;;7.40;4.73;;;2.00;99.90;;;;;;5092671;28;20406;-77
2024/01/21 08:31:08;;;;;;;8.07;4.60;;;2.00;99.90;;;;;;5097989;28;20449;-77
2024/01/21 08:33:35;;;;;;;7.20;4.32;;;2.00;99.90;;;;;;5101929;28;20422;-77
2024/01/21 08:36:01;;;;;;;7.13;4.00;;;2.00;99.90;;;;;;5099378;28;20951;-77
2024/01/21 08:38:28;;;;;;;6.93;4.40;;;2.00;99.90;;;;;;5105739;28;20431;-77
2024/01/21 08:40:54;;;;;;;7.30;4.33;;;2.00;99.90;;;;;;5096978;28;20467;-78
2024/01/21 08:43:19;;;;;;;7.45;4.53;;;2.00;99.90;;;;;;5088974;28;20480;-78
2024/01/21 08:45:45;;;;;;;6.25;4.07;;;2.00;1.00;;;;;;5077406;28;20762;-78
2024/01/21 08:48:11;;;;;;;7.23;4.47;;;2.00;1.00;;;;;;5080755;28;20400;-78
2024/01/21 08:50:36;;;;;;;7.43;4.65;;;2.00;1.00;;;;;;5080063;28;20398;-78
2024/01/21 08:53:02;;;;;;;7.72;4.43;;;2.00;1.00;;;;;;5085305;28;20400;-78
2024/01/21 08:55:28;;;;;;;7.22;4.32;;;2.00;1.00;;;;;;5071975;28;20480;-78
2024/01/21 08:57:53;;;;;;;6.27;4.07;;;2.00;1.00;;;;;;5072596;28;20420;-79
2024/01/21 09:00:19;;;;;;;7.10;4.45;;;2.00;1.00;;;;;;5077119;28;20818;-79
2024/01/21 09:02:44;;;;;;;6.70;4.40;;;2.00;1.00;;;;;;5082229;28;20445;-78
2024/01/21 09:05:10;;;;;;;7.67;4.30;;;2.00;1.00;;;;;;5087012;28;20459;-78
2024/01/21 09:07:36;;;;;;;7.20;4.47;;;2.10;1.00;;;;;;5098637;28;20400;-78
2024/01/21 09:10:04;;;;;;;6.85;4.05;;;2.10;1.00;;;;;;5096954;28;20408;-78
2024/01/21 09:12:30;;;;;;;6.43;4.50;;;2.10;1.00;;;;;;5072323;28;20790;-78
2024/01/21 09:14:55;;;;;;;6.45;4.35;;;2.20;1.00;;;;;;5099513;28;20424;-79
2024/01/21 09:17:21;;;;;;;5.90;4.20;;;2.20;1.00;;;;;;5086125;28;20426;-80
2024/01/21 09:19:47;;;;;;;7.83;4.53;;;2.20;1.00;;;;;;5089328;28;20425;-78
2024/01/21 09:22:12;;;;;;;7.35;4.85;;;2.20;1.00;;;;;;5086271;28;20453;-78
2024/01/21 09:24:38;;;;;;;7.60;4.67;;;2.20;1.00;;;;;;5064020;28;20927;-79
2024/01/21 09:27:04;;;;;;;7.60;4.87;;;2.20;1.00;;;;;;5088295;28;20405;-79
2024/01/21 09:29:29;;;;;;;7.32;4.50;;;2.20;1.00;;;;;;5086688;28;20475;-79
2024/01/21 09:31:56;;;;;;;6.75;4.57;;;2.20;1.00;;;;;;5099828;28;20408;-78
2024/01/21 09:34:22;;;;;;;6.70;4.55;;;2.30;1.00;;;;;;5087383;28;21278;-79
2024/01/21 09:36:48;;;;;;;7.10;4.73;;;2.40;1.00;;;;;;5102685;28;20731;-79
2024/01/21 09:39:14;;;;;;;7.20;4.43;;;2.50;1.00;;;;;;5103555;28;20436;-79
2024/01/21 09:41:50;;;;;;;7.55;4.45;;;2.60;1.00;;;;;;5099218;28;20796;-79
2024/01/21 09:44:26;;;;;;;6.50;4.27;;;2.60;1.00;;;;;;5106351;28;20457;-79
2024/01/21 09:46:53;;;;;;;8.45;5.18;;;2.60;1.00;;;;;;5100625;28;20461;-77
2024/01/21 09:49:20;;;;;;;7.78;4.82;;;2.60;1.00;;;;;;5091653;28;20418;-78
2024/01/21 09:51:50;;;;;;;6.78;4.30;;;2.60;1.00;;;;;;5084857;28;20564;-78
2024/01/21 09:54:16;;;;;;;7.77;4.80;;;2.50;1.00;;;;;;4856754;28;77976;-77
2024/01/21 09:56:42;;;;;;;7.13;4.78;;;2.60;1.00;;;;;;5061982;28;20432;-78
2024/01/21 09:59:12;;;;;;;6.22;4.35;;;2.60;1.00;;;;;;5063054;28;20436;-78
2024/01/21 10:01:39;;;;;;;7.53;4.57;;;2.60;1.00;;;;;;5058303;28;20443;-79
2024/01/21 10:04:09;;;;;;;7.55;4.93;;;2.70;1.00;;;;;;5066072;28;20480;-78
2024/01/21 10:06:35;;;;;;;8.10;4.40;;;2.70;1.00;;;;;;5076194;28;20431;-78
2024/01/21 10:12:18;;;;;;;7.22;4.80;;;2.80;1.00;;;;;;4675910;28;20457;-78
2024/01/21 10:25:11;;;;;;;8.18;4.93;;;2.90;1.00;;;;;;5307393;22;20456;-82
2024/01/21 10:27:53;;;;;;;6.88;4.80;;;2.90;1.00;;;;;;4998506;28;20481;-79
2024/01/21 10:30:22;;;;;;;7.72;4.68;;;2.90;1.00;;;;;;4972121;23;20442;-79
2024/01/21 10:32:49;;;;;;;8.45;5.40;;;3.00;1.00;;;;;;5003614;28;20430;-77
2024/01/21 10:35:15;;;;;;;8.60;4.87;;;3.10;1.00;;;;;;5013074;28;20424;-76
2024/01/21 10:37:41;;;;;;;7.80;5.20;;;3.10;1.00;;;;;;4995507;28;20420;-78
2024/01/21 10:40:10;;;;;;;8.43;5.07;;;3.20;1.00;;;;;;4997597;28;20412;-78
2024/01/21 10:42:38;;;;;;;8.32;5.20;;;3.30;1.00;;;;;;4994077;28;20455;-79
2024/01/21 10:45:05;;;;;;;7.22;5.05;;;3.30;1.00;;;;;;4994153;28;20499;-79
2024/01/21 10:47:33;;;;;;;8.02;5.15;;;3.40;1.00;;;;;;4996131;28;20434;-78
2024/01/21 10:50:00;;;;;;;8.27;5.53;;;3.40;1.00;;;;;;4999331;28;20448;-79
2024/01/21 10:52:26;;;;;;;8.10;5.40;;;3.50;1.00;;;;;;4992593;28;20420;-78
2024/01/21 10:54:57;;;;;;;9.10;5.63;;;3.50;1.00;;;;;;5015524;28;20513;-78
2024/01/21 10:57:23;;;;;;;9.82;5.82;;;3.60;1.00;;;;;;5009819;28;20435;-77
2024/01/21 10:59:49;;;;;;;8.30;5.27;;;3.50;1.00;;;;;;4977358;28;20547;-78
2024/01/21 11:02:15;;;;;;;8.25;5.55;;;3.50;1.00;;;;;;4996377;28;20428;-77
2024/01/21 11:04:42;;;;;;;9.97;5.57;;;3.60;1.00;;;;;;5009894;28;20408;-77
2024/01/21 11:07:11;;;;;;;8.05;5.43;;;3.60;1.00;;;;;;5020072;28;20789;-77
2024/01/21 11:09:39;;;;;;;8.43;5.65;;;3.60;1.00;;;;;;5009731;28;20433;-78
2024/01/21 11:12:05;;;;;;;9.55;5.80;;;3.60;1.00;;;;;;5009304;28;20786;-78
2024/01/21 11:14:36;;;;;;;9.55;6.50;;;3.60;1.00;;;;;;5009213;28;20420;-78
2024/01/21 11:17:12;;;;;;;8.03;5.53;;;3.50;1.00;;;;;;4993424;28;20464;-77
2024/01/21 11:19:49;;;;;;;8.23;5.40;;;3.50;1.00;;;;;;5015192;28;20448;-78
2024/01/21 11:22:16;;;;;;;9.27;6.00;;;3.60;1.00;;;;;;5023649;28;20433;-78
2024/01/21 11:24:43;;;;;;;8.90;5.95;;;3.60;1.00;;;;;;5017809;28;20416;-78
2024/01/21 11:27:21;;;;;;;9.77;5.82;;;3.70;1.00;;;;;;5022206;28;20401;-77
2024/01/21 11:29:52;;;;;;;9.90;5.97;;;3.70;1.00;;;;;;5001442;28;20424;-77
2024/01/21 11:32:28;;;;;;;8.80;5.50;;;3.80;2.00;;;;;;4998278;28;20997;-77
2024/01/21 11:35:17;;;;;;;8.60;6.05;;;3.80;3.60;;;;;;5004904;28;20463;-78
2024/01/21 11:37:45;;;;;;;9.73;5.60;;;3.80;4.90;;;;;;5010279;28;20413;-77
2024/01/21 11:40:11;;;;;;;9.50;5.93;;;3.90;4.70;;;;;;4992317;28;20937;-77
2024/01/21 11:42:37;;;;;;;8.85;5.95;;;3.90;4.90;;;;;;4991976;28;20413;-78
2024/01/21 11:45:04;;;;;;;8.85;6.05;;;3.90;4.80;;;;;;5005141;28;20440;-77
2024/01/21 11:47:29;;;;;;;8.52;5.78;;;3.90;6.30;;;;;;5023270;28;20413;-77
2024/01/21 11:49:55;;;;;;;8.13;5.80;;;4.00;5.60;;;;;;4991586;28;20467;-77
2024/01/21 11:52:21;;;;;;;9.10;6.00;;;4.00;5.60;;;;;;5010498;28;20527;-77
2024/01/21 11:54:48;;;;;;;9.43;5.90;;;3.90;6.70;;;;;;4993171;28;20777;-77
2024/01/21 11:57:14;;;;;;;9.88;6.65;;;4.00;7.00;;;;;;4992383;28;20417;-77
2024/01/21 11:59:39;;;;;;;8.47;6.03;;;4.00;7.80;;;;;;5002534;28;20782;-78
2024/01/21 12:02:07;;;;;;;9.67;6.10;;;4.00;8.90;;;;;;5014363;28;20439;-77
2024/01/21 12:04:33;;;;;;;9.33;5.90;;;4.00;11.00;;;;;;5026228;28;20789;-77
2024/01/21 12:06:59;;;;;;;10.10;6.63;;;4.00;10.30;;;;;;5010730;28;20417;-77
2024/01/21 12:09:25;;;;;;;10.15;6.40;;;4.00;13.80;;;;;;4993205;28;20972;-77
2024/01/21 12:11:52;;;;;;;9.70;6.00;;;4.00;15.20;;;;;;4992730;28;20508;-77
2024/01/21 12:14:19;;;;;;;10.48;6.68;;;4.00;17.20;;;;;;4992634;28;20486;-78
2024/01/21 12:16:50;;;;;;;10.00;6.53;;;4.00;20.70;;;;;;4991479;28;20425;-77
2024/01/21 12:19:16;;;;;;;10.27;6.60;;;4.00;21.70;;;;;;4992398;28;20441;-77
2024/01/21 12:21:43;;;;;;;9.98;6.70;;;4.00;22.40;;;;;;4992126;28;20967;-78
2024/01/21 12:24:09;;;;;;;9.60;6.47;;;4.00;24.40;;;;;;5022990;28;20424;-77
2024/01/21 12:26:34;;;;;;;8.55;6.30;;;4.00;23.30;;;;;;4992559;28;20773;-77
2024/01/21 12:29:05;;;;;;;10.20;6.37;;;4.00;24.10;;;;;;5019609;28;20429;-78
2024/01/21 12:31:32;;;;;;;9.73;5.93;;;3.90;24.70;;;;;;4990492;28;20407;-77
2024/01/21 12:34:02;;;;;;;8.80;6.15;;;3.90;24.30;;;;;;5009246;28;20496;-77
2024/01/21 12:36:36;;;;;;;10.73;6.72;;;3.90;25.10;;;;;;4990883;28;20413;-77
2024/01/21 12:39:04;;;;;;;11.27;6.88;;;3.90;33.70;;;;;;4995932;28;20441;-78
2024/01/21 12:41:30;;;;;;;11.63;6.68;;;3.90;32.90;;;;;;5006495;28;20466;-77
2024/01/21 12:43:56;;;;;;;10.48;6.18;;;3.80;31.90;;;;;;4990300;28;20413;-77
2024/01/21 12:46:22;;;;;;;9.30;6.50;;;3.80;33.70;;;;;;5008362;28;21249;-78
2024/01/21 12:48:48;;;;;;;10.20;6.18;;;3.80;36.50;;;;;;4974261;28;20466;-77
2024/01/21 12:51:17;;;;;;;10.98;7.10;;;3.80;37.00;;;;;;5007842;28;20444;-78
2024/01/21 12:53:43;;;;;;;10.18;6.80;;;3.80;38.90;;;;;;4990479;28;20413;-78
2024/01/21 12:56:09;;;;;;;10.98;7.10;;;3.80;38.50;;;;;;4990489;28;20760;-78
2024/01/21 12:58:36;;;;;;;12.07;6.95;;;3.80;41.60;;;;;;4990087;28;20495;-78
2024/01/21 13:01:02;;;;;;;10.75;7.53;;;3.80;42.10;;;;;;5007964;28;20403;-78
2024/01/21 13:03:28;;;;;;;10.70;7.00;;;3.80;43.30;;;;;;5023575;28;20801;-78
2024/01/21 13:05:54;;;;;;;11.10;7.50;;;3.80;45.40;;;;;;5003028;28;20425;-78
2024/01/21 13:08:20;;;;;;;14.45;7.63;;;3.80;45.40;;;;;;4990174;28;20424;-78
2024/01/21 13:10:47;;;;;;;11.63;7.72;;;3.80;45.30;;;;;;5023626;28;20421;-77
2024/01/21 13:13:12;;;;;;;11.57;6.97;;;3.80;49.20;;;;;;5032313;28;20438;-78